Time;durP1;ratioP1;P1;durP2;ratioP2;P2;SDS_P1;SDS_P2;PMS_P1;PMS_P2;Temp;Humidity;BMP_temperature;BMP_pressure;BME280_temperature;BME280_humidity;BME280_pressure;Samples;Min_cycle;Max_cycle;Signal;HPM_P1;HPM_P2
2020/12/16 00:01:27;;;;;;;54.67;26.12;;;;;;;0.34;88.24;101199.93;1717486;83;21213;-65
2020/12/16 00:03:54;;;;;;;43.78;20.97;;;;;;;0.32;88.32;101199.02;1717971;82;21666;-64
2020/12/16 00:06:22;;;;;;;44.83;19.52;;;;;;;0.31;88.40;101199.87;1717794;83;22219;-64
2020/12/16 00:08:50;;;;;;;32.13;15.38;;;;;;;0.34;88.33;101203.81;1717903;83;21654;-65
2020/12/16 00:11:18;;;;;;;34.13;16.20;;;;;;;0.37;88.29;101203.91;1717864;83;21187;-66
2020/12/16 00:13:49;;;;;;;50.58;22.48;;;;;;;0.39;88.35;101207.38;1717827;83;21245;-65
2020/12/16 00:16:16;;;;;;;32.45;15.58;;;;;;;0.40;88.43;101207.42;1717954;82;21183;-64
2020/12/16 00:18:44;;;;;;;48.25;21.97;;;;;;;0.38;88.48;101197.44;1717992;83;21203;-65
2020/12/16 00:21:21;;;;;;;50.50;22.90;;;;;;;0.39;88.54;101204.39;1718225;83;21562;-64
2020/12/16 00:23:49;;;;;;;48.35;22.02;;;;;;;0.40;88.49;101210.44;1718042;83;21610;-65
2020/12/16 00:26:16;;;;;;;36.98;18.45;;;;;;;0.42;88.41;101208.77;1717907;82;21386;-64
2020/12/16 00:28:45;;;;;;;43.92;21.75;;;;;;;0.43;88.36;101204.02;1718831;83;21208;-64
2020/12/16 00:31:14;;;;;;;42.40;21.62;;;;;;;0.44;88.31;101207.48;1723592;81;21196;-66
2020/12/16 00:33:42;;;;;;;49.25;21.25;;;;;;;0.44;88.36;101204.48;1689182;84;21228;-64
2020/12/16 00:36:11;;;;;;;54.18;23.90;;;;;;;0.44;88.40;101203.20;1688994;84;21207;-66
2020/12/16 00:38:39;;;;;;;51.35;22.80;;;;;;;0.43;88.37;101200.56;1689281;84;22345;-64
2020/12/16 00:41:07;;;;;;;43.63;21.75;;;;;;;0.40;88.33;101202.67;1659732;86;21202;-65
2020/12/16 00:43:35;;;;;;;37.80;19.20;;;;;;;0.38;88.32;101204.34;1672304;85;21183;-64
2020/12/16 00:46:03;;;;;;;48.38;23.38;;;;;;;0.39;88.28;101209.97;1672410;85;21685;-63
2020/12/16 00:48:31;;;;;;;51.33;24.12;;;;;;;0.40;88.26;101202.67;1674359;84;21729;-65
2020/12/16 00:50:59;;;;;;;53.73;24.50;;;;;;;0.40;88.26;101206.55;1677356;84;22249;-65
2020/12/16 00:53:27;;;;;;;44.93;21.65;;;;;;;0.40;88.28;101204.83;1644635;85;21161;-64
2020/12/16 00:55:56;;;;;;;45.65;21.33;;;;;;;0.39;88.28;101200.50;1644543;87;22215;-64
2020/12/16 00:58:24;;;;;;;46.05;21.40;;;;;;;0.37;88.23;101195.70;1644442;87;21189;-66
2020/12/16 01:00:54;;;;;;;42.62;20.15;;;;;;;0.32;88.05;101192.14;1644413;87;21205;-65
2020/12/16 01:03:23;;;;;;;43.73;20.97;;;;;;;0.30;88.07;101189.03;1644491;85;21390;-66
2020/12/16 01:05:51;;;;;;;38.95;20.52;;;;;;;0.29;88.15;101186.88;1644273;87;21648;-65
2020/12/16 01:08:20;;;;;;;38.85;20.05;;;;;;;0.30;88.29;101183.86;1644203;87;21226;-65
2020/12/16 01:10:49;;;;;;;47.95;22.80;;;;;;;0.30;88.32;101185.15;1644300;87;22171;-64
2020/12/16 01:13:16;;;;;;;53.60;23.30;;;;;;;0.29;88.26;101185.58;1644455;87;21226;-64
2020/12/16 01:15:45;;;;;;;70.45;31.55;;;;;;;0.26;88.35;101187.25;1644203;85;21258;-65
2020/12/16 01:18:14;;;;;;;48.87;20.35;;;;;;;0.29;88.36;101179.53;1644297;87;21601;-66
2020/12/16 01:20:43;;;;;;;40.25;18.25;;;;;;;0.32;88.42;101182.17;1644182;87;21250;-65
2020/12/16 01:23:13;;;;;;;61.00;26.23;;;;;;;0.32;88.39;101182.17;1643122;87;21173;-65
2020/12/16 01:25:41;;;;;;;46.35;20.40;;;;;;;0.32;88.52;101178.29;1644305;85;21195;-64
2020/12/16 01:28:10;;;;;;;58.75;25.80;;;;;;;0.32;88.57;101179.19;1644448;87;22064;-63
2020/12/16 01:30:40;;;;;;;;;;;;;;;0.34;88.64;101176.18;1645821;85;21696;-64
2020/12/16 01:33:08;;;;;;;61.92;25.62;;;;;;;0.35;88.62;101176.66;1615658;87;20531;-64
2020/12/16 01:35:36;;;;;;;60.35;25.62;;;;;;;0.37;88.66;101181.88;1644424;87;21831;-63
2020/12/16 01:38:04;;;;;;;79.07;31.35;;;;;;;0.37;88.67;101174.97;1644371;87;21201;-64
2020/12/16 01:40:38;;;;;;;74.47;30.68;;;;;;;0.38;88.68;101177.13;1644064;87;21406;-63
2020/12/16 01:43:06;;;;;;;65.42;30.55;;;;;;;0.39;88.82;101171.09;1617743;87;21162;-65
2020/12/16 01:45:35;;;;;;;64.47;28.98;;;;;;;0.40;88.78;101169.84;1644164;87;21206;-64
2020/12/16 01:48:03;;;;;;;75.28;31.90;;;;;;;0.38;88.72;101168.94;1666771;84;21203;-64
2020/12/16 01:50:31;;;;;;;74.80;31.17;;;;;;;0.39;88.66;101167.20;1668263;86;21218;-64
2020/12/16 01:53:01;;;;;;;68.35;27.90;;;;;;;0.39;88.58;101164.62;1655447;84;21226;-64
2020/12/16 01:55:42;;;;;;;69.07;29.45;;;;;;;0.39;88.71;101162.02;1671009;85;21247;-65
2020/12/16 01:58:27;;;;;;;74.23;30.13;;;;;;;0.43;88.75;101161.25;1833604;78;22631;-63
2020/12/16 02:00:56;;;;;;;73.42;29.75;;;;;;;0.36;88.76;101158.09;1802395;79;22271;-65
2020/12/16 02:03:24;;;;;;;69.00;28.98;;;;;;;0.34;88.75;101157.17;1736890;82;22252;-64
2020/12/16 02:06:07;;;;;;;74.77;29.87;;;;;;;0.36;88.70;101146.42;1888086;75;22636;-64
2020/12/16 02:08:37;;;;;;;63.38;26.27;;;;;;;0.30;88.76;101151.07;1859046;77;21154;-65
2020/12/16 02:11:07;;;;;;;58.48;26.40;;;;;;;0.29;88.86;101160.09;1821195;78;22259;-66
2020/12/16 02:13:37;;;;;;;68.40;29.37;;;;;;;0.27;88.88;101152.70;1789629;78;21142;-63
2020/12/16 02:16:05;;;;;;;54.08;26.23;;;;;;;0.26;88.78;101153.56;1788989;80;21607;-62
2020/12/16 02:18:33;;;;;;;51.55;24.52;;;;;;;0.25;88.76;101152.66;1788952;80;21628;-64
2020/12/16 02:21:03;;;;;;;47.23;23.70;;;;;;;0.24;88.85;101157.84;1788432;79;21168;-63
2020/12/16 02:23:33;;;;;;;60.48;26.45;;;;;;;0.24;88.88;101151.36;1785958;80;21390;-63
2020/12/16 02:26:03;;;;;;;51.33;23.73;;;;;;;0.20;88.79;101151.27;1789063;80;21188;-64
2020/12/16 02:28:32;;;;;;;59.80;27.13;;;;;;;0.18;88.82;101154.28;1788960;80;21658;-63
2020/12/16 02:31:00;;;;;;;54.33;26.55;;;;;;;0.17;88.68;101148.63;1788869;80;21603;-63
2020/12/16 02:33:43;;;;;;;48.27;23.00;;;;;;;0.19;88.74;101148.24;1846117;76;24161;-63
2020/12/16 02:36:19;;;;;;;48.48;22.67;;;;;;;0.11;88.79;101149.78;1815141;79;21669;-64
2020/12/16 02:38:58;;;;;;;51.42;24.23;;;;;;;0.09;88.87;101152.78;1814629;79;21567;-63
2020/12/16 02:41:28;;;;;;;58.00;25.82;;;;;;;0.08;88.97;101141.95;1814206;79;21000;-62
2020/12/16 02:43:57;;;;;;;58.20;27.82;;;;;;;0.10;88.94;101146.75;1816014;79;21210;-63
2020/12/16 02:46:25;;;;;;;42.40;20.35;;;;;;;0.11;88.96;101142.00;1809122;78;21598;-64
2020/12/16 02:48:54;;;;;;;61.95;29.12;;;;;;;0.11;88.95;101139.84;1784080;80;21574;-64
2020/12/16 02:51:21;;;;;;;55.20;24.70;;;;;;;0.10;88.99;101145.45;1783871;79;22006;-63
2020/12/16 02:53:51;;;;;;;51.02;25.27;;;;;;;0.09;89.08;101141.13;1781636;79;21138;-62
2020/12/16 02:56:30;;;;;;;49.58;23.18;;;;;;;0.10;89.14;101136.39;1781151;80;21182;-64
2020/12/16 02:59:03;;;;;;;50.78;24.70;;;;;;;0.10;89.08;101141.56;1783248;80;21194;-63
2020/12/16 03:01:33;;;;;;;;;;;;;;;0.09;89.05;101139.83;1757317;80;21127;-64
2020/12/16 03:07:18;;;;;;;58.03;27.67;;;;;;;0.09;89.28;101141.13;1794669;79;22509;-63
2020/12/16 03:09:46;;;;;;;61.13;28.57;;;;;;;0.05;89.35;101138.01;1751423;81;21147;-62
2020/12/16 03:12:16;;;;;;;59.33;28.15;;;;;;;0.05;89.34;101143.62;1751390;81;22171;-63
2020/12/16 03:14:54;;;;;;;56.90;25.87;;;;;;;0.09;89.45;101145.02;1821396;76;22710;-64
2020/12/16 03:17:24;;;;;;;55.05;24.90;;;;;;;0.08;89.32;101136.77;1783875;80;21114;-64
2020/12/16 03:19:53;;;;;;;59.27;26.10;;;;;;;0.11;89.40;101139.41;1783535;80;21256;-63
2020/12/16 03:22:22;;;;;;;60.92;26.82;;;;;;;0.13;89.37;101143.34;1783801;80;21134;-64
2020/12/16 03:24:59;;;;;;;38.27;17.83;;;;;;;0.18;89.39;101134.84;1824226;76;22705;-65
2020/12/16 03:27:29;;;;;;;45.50;21.02;;;;;;;0.15;89.44;101136.06;1781256;80;21268;-64
2020/12/16 03:30:07;;;;;;;57.33;26.53;;;;;;;0.23;89.48;101143.11;1862080;76;23040;-65
2020/12/16 03:32:52;;;;;;;49.93;23.90;;;;;;;0.17;89.39;101134.38;1822898;78;21545;-64
2020/12/16 03:35:23;;;;;;;46.42;22.30;;;;;;;0.17;89.22;101133.08;1824973;78;21444;-63
2020/12/16 03:37:52;;;;;;;54.33;26.02;;;;;;;0.14;89.07;101133.45;1825392;78;21598;-64
2020/12/16 03:40:22;;;;;;;65.15;29.82;;;;;;;0.09;89.06;101133.36;1825285;78;21173;-63
2020/12/16 03:42:52;;;;;;;65.30;28.57;;;;;;;0.08;89.11;101129.00;1794810;78;21138;-64
2020/12/16 03:45:19;;;;;;;49.00;23.92;;;;;;;0.06;89.05;101130.68;1825456;78;21146;-64
2020/12/16 03:47:48;;;;;;;43.23;20.77;;;;;;;0.06;89.06;101134.56;1815715;77;22078;-64
2020/12/16 03:50:18;;;;;;;52.70;24.47;;;;;;;0.05;89.12;101140.59;1813386;79;21154;-64
2020/12/16 03:52:47;;;;;;;50.15;23.40;;;;;;;0.05;89.10;101144.48;1813676;77;21491;-65
2020/12/16 03:55:36;;;;;;;45.87;20.47;;;;;;;0.07;89.18;101144.10;1846238;76;22756;-64
2020/12/16 03:58:09;;;;;;;47.23;21.75;;;;;;;0.03;89.27;101148.75;1813518;79;21158;-64
2020/12/16 04:00:39;;;;;;;48.45;22.13;;;;;;;0.03;89.11;101150.47;1809671;79;21195;-65
2020/12/16 04:03:08;;;;;;;47.40;21.57;;;;;;;-0.02;89.12;101146.06;1753650;80;21626;-64
2020/12/16 04:05:49;;;;;;;50.90;23.50;;;;;;;-0.09;89.34;101141.59;1783119;80;21127;-64
2020/12/16 04:08:17;;;;;;;44.48;20.45;;;;;;;-0.11;89.38;101152.75;1783919;80;21294;-64
2020/12/16 04:11:09;;;;;;;45.98;20.20;;;;;;;-0.08;89.50;101161.88;1783879;80;21106;-65
2020/12/16 04:13:43;;;;;;;44.08;20.72;;;;;;;-0.10;89.41;101157.08;1783973;79;21194;-64
2020/12/16 04:16:15;;;;;;;45.83;21.23;;;;;;;-0.12;89.48;101150.56;1783869;80;21315;-63
2020/12/16 04:18:45;;;;;;;45.38;20.95;;;;;;;-0.12;89.57;101153.58;1783998;80;21171;-63
2020/12/16 04:21:18;;;;;;;47.13;21.40;;;;;;;-0.10;89.79;101155.36;1783901;80;21159;-64
2020/12/16 04:23:47;;;;;;;42.25;19.05;;;;;;;-0.07;89.82;101159.73;1784026;79;21351;-63
2020/12/16 04:26:28;;;;;;;45.03;21.20;;;;;;;0.01;89.92;101158.20;1888101;76;22690;-65
2020/12/16 04:28:58;;;;;;;40.17;18.65;;;;;;;-0.03;89.81;101163.72;1843987;77;21822;-64
2020/12/16 04:31:26;;;;;;;49.98;22.50;;;;;;;-0.03;89.87;101166.73;1825336;78;21545;-63
2020/12/16 04:33:54;;;;;;;48.90;23.12;;;;;;;-0.05;89.81;101163.23;1825204;78;21063;-63
2020/12/16 04:36:24;;;;;;;46.08;22.22;;;;;;;-0.04;89.73;101172.77;1820057;78;21135;-65
2020/12/16 04:38:53;;;;;;;58.05;26.82;;;;;;;-0.07;89.79;101167.50;1825371;78;21155;-63
2020/12/16 04:41:22;;;;;;;47.00;22.15;;;;;;;-0.07;89.89;101167.50;1825320;78;21222;-64
2020/12/16 04:43:51;;;;;;;46.60;21.90;;;;;;;-0.06;89.99;101164.95;1825083;78;21498;-64
2020/12/16 04:46:19;;;;;;;51.18;22.70;;;;;;;-0.05;89.98;101163.23;1825228;77;21592;-64
2020/12/16 04:48:47;;;;;;;42.90;19.55;;;;;;;-0.02;89.94;101163.32;1825257;78;21157;-63
2020/12/16 04:51:35;;;;;;;49.90;26.35;;;;;;;0.04;89.87;101163.44;1854081;76;27923;-63
2020/12/16 04:54:04;;;;;;;50.75;25.35;;;;;;;0.06;89.71;101172.13;1793370;78;22226;-63
2020/12/16 04:56:34;;;;;;;56.35;28.32;;;;;;;0.12;89.63;101173.56;1823097;78;21369;-63
2020/12/16 04:59:08;;;;;;;56.65;28.02;;;;;;;0.11;89.50;101178.27;1733341;80;21663;-64
2020/12/16 05:01:40;;;;;;;51.73;24.55;;;;;;;0.12;89.54;101180.04;1783351;80;21193;-64
2020/12/16 05:04:11;;;;;;;50.92;23.73;;;;;;;0.14;89.76;101180.95;1756409;81;21151;-64
2020/12/16 05:06:50;;;;;;;55.83;26.07;;;;;;;0.16;89.66;101186.14;1751123;81;21671;-65
2020/12/16 05:09:18;;;;;;;56.95;25.62;;;;;;;0.13;89.65;101181.77;1784167;80;21605;-66
2020/12/16 05:11:51;;;;;;;57.05;25.45;;;;;;;0.15;89.63;101182.69;1756604;81;21149;-65
2020/12/16 05:14:21;;;;;;;55.92;27.17;;;;;;;0.17;89.57;101184.89;1751481;81;21184;-65
2020/12/16 05:17:03;;;;;;;61.33;28.83;;;;;;;0.15;89.58;101185.27;1784138;80;21167;-64
2020/12/16 05:19:43;;;;;;;52.35;25.37;;;;;;;0.13;89.62;101176.59;1756324;81;21174;-63
2020/12/16 05:22:31;;;;;;;53.23;24.15;;;;;;;0.09;89.63;101179.98;1783873;80;21357;-64
2020/12/16 05:24:59;;;;;;;63.15;26.00;;;;;;;0.11;89.66;101180.86;1756325;80;21209;-64
2020/12/16 05:27:33;;;;;;;51.45;23.67;;;;;;;0.08;89.41;101178.64;1783838;80;21097;-64
2020/12/16 05:30:07;;;;;;;60.03;27.10;;;;;;;0.06;89.40;101173.41;1756246;81;21245;-64
2020/12/16 05:32:35;;;;;;;61.95;27.73;;;;;;;0.03;89.50;101177.23;1783977;80;21185;-64
2020/12/16 05:35:35;;;;;;;52.10;23.95;;;;;;;0.03;89.53;101178.54;1756338;81;21873;-63
2020/12/16 05:38:08;;;;;;;59.83;26.68;;;;;;;0.02;89.52;101178.06;1699024;84;21237;-64
2020/12/16 05:40:38;;;;;;;57.48;27.27;;;;;;;0.03;89.63;101173.78;1699419;84;21226;-64
2020/12/16 05:43:07;;;;;;;52.73;23.67;;;;;;;0.06;89.70;101174.70;1741865;80;21160;-64
2020/12/16 05:45:41;;;;;;;53.17;24.85;;;;;;;0.07;89.65;101174.28;1756254;80;21178;-67
2020/12/16 05:48:11;;;;;;;53.05;23.25;;;;;;;0.08;89.65;101178.21;1783453;80;22266;-66
2020/12/16 05:50:55;;;;;;;58.52;25.08;;;;;;;0.05;88.91;101175.56;1746884;81;21166;-65
2020/12/16 05:53:26;;;;;;;51.50;23.02;;;;;;;0.05;89.03;101182.47;1774473;80;21372;-69
2020/12/16 05:56:00;;;;;;;44.35;21.00;;;;;;;0.02;88.78;101172.88;1760716;81;21707;-65
2020/12/16 05:58:34;;;;;;;46.45;22.80;;;;;;;0.02;88.56;101178.06;1736720;81;21158;-68
2020/12/16 06:01:05;;;;;;;46.42;21.80;;;;;;;0.03;88.03;101169.47;1760396;81;21550;-65
2020/12/16 06:03:35;;;;;;;42.00;19.90;;;;;;;0.06;87.74;101173.41;1759158;80;21203;-68
2020/12/16 06:06:07;;;;;;;48.17;24.95;;;;;;;0.05;87.33;101175.56;1729961;82;21660;-68
2020/12/16 06:08:42;;;;;;;48.65;21.20;;;;;;;0.03;86.88;101172.06;1743072;82;21620;-68
2020/12/16 06:11:11;;;;;;;43.60;20.27;;;;;;;0.05;86.93;101174.27;1729715;82;21190;-70
2020/12/16 06:13:44;;;;;;;38.57;18.50;;;;;;;0.09;87.03;101174.80;1757562;80;21378;-69
2020/12/16 06:16:13;;;;;;;36.90;17.82;;;;;;;0.07;85.60;101179.06;1749157;81;21677;-70
2020/12/16 06:18:47;;;;;;;40.95;18.65;;;;;;;0.02;84.72;101178.06;1758399;81;21218;-69
2020/12/16 06:21:15;;;;;;;36.55;17.05;;;;;;;0.03;84.48;101180.26;1772059;81;21174;-68
2020/12/16 06:23:44;;;;;;;42.83;22.80;;;;;;;0.07;84.38;101178.17;1758314;81;21225;-69
2020/12/16 06:26:17;;;;;;;41.23;21.80;;;;;;;0.07;84.59;101182.95;1772027;81;21268;-69
2020/12/16 06:28:46;;;;;;;38.85;19.65;;;;;;;0.08;84.67;101184.69;1758818;81;21205;-71
2020/12/16 06:31:28;;;;;;;40.03;20.88;;;;;;;0.08;84.78;101188.57;1741535;82;21138;-69
2020/12/16 06:34:10;;;;;;;39.40;20.32;;;;;;;0.11;84.03;101186.04;1768201;80;21145;-69
2020/12/16 06:36:41;;;;;;;41.58;20.55;;;;;;;0.08;83.80;101185.12;1724696;83;21579;-68
2020/12/16 06:39:21;;;;;;;56.98;25.12;;;;;;;0.06;83.54;101188.95;1724603;83;21460;-69
2020/12/16 06:41:58;;;;;;;49.53;25.50;;;;;;;0.04;83.61;101191.06;1724508;83;21162;-69
2020/12/16 06:44:27;;;;;;;43.73;24.15;;;;;;;0.06;83.79;101191.55;1724300;83;21174;-68
2020/12/16 06:46:57;;;;;;;42.17;22.30;;;;;;;0.04;83.62;101202.72;1740728;81;21166;-67
2020/12/16 06:49:28;;;;;;;47.57;22.17;;;;;;;0.03;83.74;101201.84;1773843;80;21291;-68
2020/12/16 06:52:10;;;;;;;;;;;;;;;0.05;83.88;101208.37;1742888;80;21420;-67
2020/12/16 06:54:52;;;;;;;44.40;22.55;;;;;;;0.05;83.86;101204.05;1750109;82;22023;-69
2020/12/16 06:57:24;;;;;;;51.63;24.27;;;;;;;0.04;83.97;101212.64;1749532;81;21183;-70
2020/12/16 06:59:57;;;;;;;51.37;23.65;;;;;;;0.03;83.84;101219.97;1750255;82;21650;-69
2020/12/16 07:02:32;;;;;;;50.28;25.20;;;;;;;0.00;83.79;101216.03;1750660;82;21154;-69
2020/12/16 07:05:04;;;;;;;59.48;25.12;;;;;;;0.01;83.71;101228.12;1753036;82;22720;-68
2020/12/16 07:34:17;;;;;;;75.20;35.97;;;;;;;-0.32;84.10;101208.36;1836129;77;22829;-94
2020/12/16 07:37:18;;;;;;;72.65;32.00;;;;;;;-0.33;84.16;101218.23;1818902;78;21024;-92
2020/12/16 07:40:11;;;;;;;61.53;27.02;;;;;;;-0.27;84.21;101208.05;1739367;80;74103;-71
2020/12/16 07:42:39;;;;;;;63.60;30.10;;;;;;;-0.25;83.47;101207.67;1717319;82;21182;-70
2020/12/16 07:45:10;;;;;;;63.00;30.77;;;;;;;-0.22;83.35;101209.02;1721277;82;21154;-69
2020/12/16 07:47:41;;;;;;;62.88;29.52;;;;;;;-0.17;82.97;101205.67;1717494;82;21159;-69
2020/12/16 07:50:09;;;;;;;55.73;28.42;;;;;;;-0.12;82.66;101206.23;1673379;83;21643;-71
2020/12/16 07:52:39;;;;;;;60.52;27.48;;;;;;;-0.09;82.89;101205.42;1715116;82;21198;-71
2020/12/16 07:55:25;;;;;;;55.73;26.63;;;;;;;0.01;83.19;101214.31;1868526;76;20943;-72
2020/12/16 07:57:53;;;;;;;53.75;26.70;;;;;;;0.02;83.12;101216.91;1835283;77;21179;-71
2020/12/16 08:00:23;;;;;;;53.42;27.95;;;;;;;0.06;82.76;101225.22;1831036;77;22655;-71
2020/12/16 08:02:52;;;;;;;54.53;28.27;;;;;;;0.07;82.70;101217.92;1831626;77;21174;-71
2020/12/16 08:05:20;;;;;;;56.10;28.12;;;;;;;0.11;82.70;101217.13;1786807;76;40181;-70
2020/12/16 08:08:09;;;;;;;59.05;25.37;;;;;;;0.12;82.54;101224.08;1788881;79;21138;-71
2020/12/16 08:10:37;;;;;;;57.40;29.05;;;;;;;0.14;82.64;101219.81;1766739;80;22475;-69
2020/12/16 08:13:09;;;;;;;51.05;29.57;;;;;;;0.15;82.78;101220.25;1779406;79;21433;-69
2020/12/16 08:15:41;;;;;;;52.43;23.10;;;;;;;0.18;82.84;101222.93;1786469;79;21645;-70
2020/12/16 08:18:09;;;;;;;58.90;28.45;;;;;;;0.23;82.31;101226.92;1783672;80;21066;-70
2020/12/16 08:20:37;;;;;;;58.42;28.10;;;;;;;0.21;82.06;101216.94;1785176;80;21060;-72
2020/12/16 08:23:05;;;;;;;65.95;29.77;;;;;;;0.21;82.17;101220.83;1784776;80;21615;-68
2020/12/16 08:25:36;;;;;;;44.83;23.85;;;;;;;0.17;81.94;101225.05;1783856;80;21469;-70
2020/12/16 08:28:04;;;;;;;52.03;26.17;;;;;;;0.19;81.21;101222.08;1780081;80;21181;-69
2020/12/16 08:30:33;;;;;;;49.05;26.35;;;;;;;0.14;81.20;101218.52;1785379;78;21538;-69
2020/12/16 08:33:07;;;;;;;51.53;28.77;;;;;;;0.13;81.54;101219.33;1735618;82;21636;-70
2020/12/16 08:35:49;;;;;;;69.30;28.98;;;;;;;0.14;81.91;101227.58;1691412;83;21178;-69
2020/12/16 08:38:35;;;;;;;58.68;28.23;;;;;;;0.12;82.06;101225.80;1706401;82;21895;-70
2020/12/16 08:41:07;;;;;;;50.83;24.23;;;;;;;0.12;82.24;101215.01;1691713;84;21211;-70
2020/12/16 08:43:37;;;;;;;57.25;32.17;;;;;;;0.13;82.24;101221.05;1710878;82;21693;-71
2020/12/16 08:46:25;;;;;;;54.13;31.25;;;;;;;0.11;81.49;101224.03;1708274;82;21580;-69
2020/12/16 08:49:04;;;;;;;48.17;27.95;;;;;;;0.10;81.94;101217.98;1736843;82;22158;-69
2020/12/16 08:51:37;;;;;;;58.42;29.20;;;;;;;0.13;81.74;101219.33;1716175;82;21447;-70
2020/12/16 08:56:58;;;;;;;65.53;29.40;;;;;;;0.14;81.66;101209.45;1869691;76;22651;-69
2020/12/16 08:59:27;;;;;;;62.53;30.27;;;;;;;0.06;81.39;101204.50;1811796;79;21128;-70
2020/12/16 09:02:10;;;;;;;64.75;32.23;;;;;;;0.09;81.80;101205.88;1760552;80;21276;-71
2020/12/16 09:04:40;;;;;;;56.88;30.80;;;;;;;0.08;82.34;101201.95;1775995;80;21232;-71
2020/12/16 09:07:17;;;;;;;62.98;30.92;;;;;;;0.06;82.14;101201.91;1791308;80;21697;-70
2020/12/16 09:09:54;;;;;;;61.80;30.20;;;;;;;0.07;82.33;101204.97;1717644;79;22744;-70
2020/12/16 09:12:23;;;;;;;57.45;26.68;;;;;;;0.13;82.43;101201.20;1710684;83;21118;-71
2020/12/16 09:15:02;;;;;;;58.17;28.90;;;;;;;0.12;81.63;101198.59;1692555;83;22257;-71
2020/12/16 09:17:34;;;;;;;58.15;29.55;;;;;;;0.13;81.59;101197.31;1743173;81;21188;-70
2020/12/16 09:20:06;;;;;;;57.15;29.57;;;;;;;0.16;81.67;101202.59;1714594;83;21182;-70
2020/12/16 09:22:34;;;;;;;56.20;25.40;;;;;;;0.22;81.54;101200.97;1706513;82;21194;-70
2020/12/16 09:25:04;;;;;;;59.55;28.60;;;;;;;0.22;80.88;101200.97;1722363;83;21195;-69
2020/12/16 09:27:37;;;;;;;55.63;26.97;;;;;;;0.23;81.40;101201.41;1759783;81;21640;-66
2020/12/16 09:30:06;;;;;;;42.33;23.92;;;;;;;0.27;80.96;101204.53;1733207;82;21217;-69
2020/12/16 09:32:34;;;;;;;47.85;24.07;;;;;;;0.33;81.03;101205.97;1761620;81;21771;-71
2020/12/16 09:35:04;;;;;;;48.92;25.35;;;;;;;0.37;81.14;101205.20;1788720;80;21159;-69
2020/12/16 09:37:33;;;;;;;51.33;24.92;;;;;;;0.40;81.01;101207.42;1766067;80;21175;-71
2020/12/16 09:40:10;;;;;;;54.65;28.52;;;;;;;0.38;81.04;101200.03;1792660;80;22265;-70
2020/12/16 09:42:42;;;;;;;50.58;22.90;;;;;;;0.41;81.05;101194.94;1789268;80;21178;-70
2020/12/16 09:45:13;;;;;;;49.75;25.90;;;;;;;0.45;80.69;101194.98;1765655;79;21115;-70
2020/12/16 09:47:51;;;;;;;48.78;25.37;;;;;;;0.45;80.95;101191.10;1787179;80;21597;-69
2020/12/16 09:50:28;;;;;;;47.08;24.52;;;;;;;0.45;81.14;101190.67;1766920;80;21536;-69
2020/12/16 09:52:58;;;;;;;41.42;20.27;;;;;;;0.46;80.97;101183.38;1792976;80;21578;-71
2020/12/16 09:55:27;;;;;;;52.60;24.60;;;;;;;0.49;81.07;101177.38;1792897;80;21176;-70
2020/12/16 09:58:05;;;;;;;44.38;20.90;;;;;;;0.46;81.20;101177.28;1789970;80;21196;-69
2020/12/16 10:00:40;;;;;;;43.85;21.68;;;;;;;0.43;81.43;101175.52;1794581;80;21292;-69
2020/12/16 10:03:11;;;;;;;39.53;19.75;;;;;;;0.41;81.32;101173.30;1794958;79;21183;-70
2020/12/16 10:05:49;;;;;;;37.45;20.08;;;;;;;0.39;81.50;101172.39;1794939;80;22273;-69
2020/12/16 10:08:21;;;;;;;32.42;19.70;;;;;;;0.40;81.47;101170.27;1794290;80;21100;-70
2020/12/16 10:10:49;;;;;;;35.25;19.67;;;;;;;0.38;81.56;101172.82;1795338;80;21180;-70
2020/12/16 10:13:22;;;;;;;34.80;19.82;;;;;;;0.34;81.49;101163.23;1760868;81;21167;-71
2020/12/16 10:15:53;;;;;;;37.75;18.95;;;;;;;0.36;81.98;101168.45;1759406;81;21236;-69
2020/12/16 10:18:22;;;;;;;39.70;21.65;;;;;;;0.35;82.19;101166.72;1759463;81;21430;-69
2020/12/16 10:20:53;;;;;;;44.63;21.52;;;;;;;0.33;82.21;101163.22;1760089;81;21054;-69
2020/12/16 10:23:22;;;;;;;41.23;20.62;;;;;;;0.31;81.99;101159.72;1760131;81;21094;-70
2020/12/16 10:25:51;;;;;;;39.08;20.48;;;;;;;0.31;82.30;101162.30;1745781;80;21135;-71
2020/12/16 10:28:25;;;;;;;43.73;23.38;;;;;;;0.31;81.98;101150.64;1752236;81;21116;-69
2020/12/16 10:30:56;;;;;;;40.40;21.85;;;;;;;0.29;81.92;101152.33;1758072;81;21377;-68
2020/12/16 10:33:24;;;;;;;37.58;20.48;;;;;;;0.27;82.11;101152.70;1754953;80;21819;-68
2020/12/16 10:35:52;;;;;;;36.58;20.02;;;;;;;0.27;82.01;101147.53;1756643;81;21129;-67
2020/12/16 10:38:21;;;;;;;36.38;20.77;;;;;;;0.29;82.23;101144.12;1731341;82;21134;-66
2020/12/16 10:40:51;;;;;;;39.35;20.92;;;;;;;0.28;82.34;101144.11;1758996;81;21067;-68
2020/12/16 10:43:19;;;;;;;34.45;19.70;;;;;;;0.30;82.23;101143.30;1758750;81;21370;-67
2020/12/16 10:45:49;;;;;;;38.25;19.87;;;;;;;0.33;82.07;101143.35;1756884;81;21259;-67
2020/12/16 10:48:17;;;;;;;39.25;20.72;;;;;;;0.35;82.18;101144.69;1724065;81;21179;-68
2020/12/16 10:50:45;;;;;;;38.75;21.87;;;;;;;0.37;82.13;101148.19;1757147;81;21230;-67
2020/12/16 10:53:17;;;;;;;31.55;18.30;;;;;;;0.35;82.26;101142.10;1723908;83;21185;-67
2020/12/16 10:55:45;;;;;;;34.30;19.25;;;;;;;0.37;81.99;101140.42;1709904;83;21394;-67
2020/12/16 10:58:13;;;;;;;38.05;19.70;;;;;;;0.35;81.84;101142.10;1706898;82;21184;-67
2020/12/16 11:00:42;;;;;;;32.98;20.23;;;;;;;0.33;81.91;101139.89;1710959;83;21707;-67
2020/12/16 11:03:12;;;;;;;35.95;19.87;;;;;;;0.32;82.06;101138.13;1681386;85;21180;-67
2020/12/16 11:05:40;;;;;;;34.70;18.50;;;;;;;0.35;82.08;101135.19;1730979;82;21183;-68
2020/12/16 11:08:07;;;;;;;35.48;20.35;;;;;;;0.36;82.12;101133.47;1682137;85;21398;-66
2020/12/16 11:10:42;;;;;;;32.42;18.07;;;;;;;0.36;82.04;101134.77;1733216;82;21211;-66
2020/12/16 11:13:46;;;;;;;30.35;17.07;;;;;;;0.37;82.02;101140.42;1662527;85;21165;-68
2020/12/16 11:16:18;;;;;;;33.30;18.92;;;;;;;0.35;82.45;101135.63;1728307;82;21685;-68
2020/12/16 11:18:47;;;;;;;34.88;19.52;;;;;;;0.32;82.43;101131.65;1681801;85;21197;-68
2020/12/16 11:21:15;;;;;;;36.90;20.08;;;;;;;0.35;82.85;101127.84;1730903;82;21390;-70
2020/12/16 11:23:50;;;;;;;28.52;17.95;;;;;;;0.38;82.77;101131.79;1682031;85;21660;-70
2020/12/16 11:26:17;;;;;;;32.17;18.42;;;;;;;0.38;82.86;101118.40;1730712;82;21219;-69
2020/12/16 11:28:45;;;;;;;31.95;19.00;;;;;;;0.38;82.91;101120.12;1682326;85;21189;-69
2020/12/16 11:31:14;;;;;;;33.25;18.55;;;;;;;0.43;82.94;101122.38;1673454;82;51609;-70
2020/12/16 11:33:44;;;;;;;36.42;18.45;;;;;;;0.39;82.66;101116.67;1654104;86;21418;-67
2020/12/16 11:36:21;;;;;;;34.35;20.40;;;;;;;0.37;82.92;101116.66;1673099;85;21666;-69
2020/12/16 11:38:55;;;;;;;30.30;19.45;;;;;;;0.39;83.10;101111.09;1654555;86;21207;-68
2020/12/16 11:41:23;;;;;;;29.27;18.55;;;;;;;0.41;83.20;101109.81;1673474;85;21193;-68
2020/12/16 11:43:53;;;;;;;32.45;19.48;;;;;;;0.39;83.28;101108.91;1654692;86;21123;-68
2020/12/16 11:46:25;;;;;;;38.10;21.12;;;;;;;0.33;83.46;101101.89;1676968;84;21217;-68
2020/12/16 11:48:59;;;;;;;40.65;20.97;;;;;;;0.34;83.71;101113.12;1684741;84;21679;-68
2020/12/16 11:51:31;;;;;;;35.63;18.73;;;;;;;0.35;83.75;101112.30;1681904;85;21172;-68
2020/12/16 11:54:06;;;;;;;39.83;22.13;;;;;;;0.29;82.87;101109.58;1652644;86;21379;-68
2020/12/16 11:56:34;;;;;;;40.43;22.48;;;;;;;0.29;83.27;101109.58;1683737;83;21617;-65
2020/12/16 11:59:11;;;;;;;37.40;20.50;;;;;;;0.30;83.60;101111.31;1701701;84;21193;-68
2020/12/16 12:01:47;;;;;;;42.38;24.07;;;;;;;0.32;83.76;101107.03;1696222;83;21283;-68
2020/12/16 12:04:29;;;;;;;37.73;22.67;;;;;;;0.32;83.63;101117.40;1657360;86;21563;-68
2020/12/16 12:07:05;;;;;;;36.10;21.33;;;;;;;0.34;83.94;101108.81;1654330;86;21218;-67
2020/12/16 12:09:47;;;;;;;40.50;22.95;;;;;;;0.35;83.66;101117.48;1672949;84;21780;-69
2020/12/16 12:12:25;;;;;;;37.75;21.45;;;;;;;0.30;83.93;101112.60;1684794;84;21262;-68